Time;durP1;ratioP1;P1;durP2;ratioP2;P2;SDS_P1;SDS_P2;PMS_P1;PMS_P2;Temp;Humidity;BMP_temperature;BMP_pressure;BME280_temperature;BME280_humidity;BME280_pressure;Samples;Min_cycle;Max_cycle;Signal;HPM_P1;HPM_P2
2022/04/20 00:01:19;;;;;;;6.43;5.47;;;;;;;;;;5061996;28;20409;-84
2022/04/20 00:03:45;;;;;;;5.57;5.00;;;;;;;;;;5062655;28;20465;-83
2022/04/20 00:06:11;;;;;;;5.97;4.80;;;;;;;;;;5061879;28;20798;-83
2022/04/20 00:08:37;;;;;;;5.30;4.43;;;;;;;;;;5062151;28;20395;-83
2022/04/20 00:11:04;;;;;;;5.90;5.30;;;;;;;;;;5063143;28;20894;-84
2022/04/20 00:13:30;;;;;;;7.27;4.83;;;;;;;;;;5062493;28;20419;-83
2022/04/20 00:15:56;;;;;;;5.73;5.20;;;;;;;;;;5060780;28;20451;-83
2022/04/20 00:18:22;;;;;;;6.77;5.60;;;;;;;;;;5059623;28;20905;-83
2022/04/20 00:20:48;;;;;;;8.47;5.20;;;;;;;;;;5059798;28;20459;-84
2022/04/20 00:23:14;;;;;;;7.70;5.70;;;;;;;;;;5059787;28;20797;-83
2022/04/20 00:25:40;;;;;;;6.90;5.80;;;;;;;;;;5059603;28;20493;-83
2022/04/20 00:28:06;;;;;;;7.03;5.33;;;;;;;;;;5059786;28;20766;-82
2022/04/20 00:30:33;;;;;;;6.73;5.70;;;;;;;;;;5066945;28;20805;-83
2022/04/20 00:32:59;;;;;;;6.40;5.67;;;;;;;;;;5066907;28;20402;-83
2022/04/20 00:35:26;;;;;;;9.43;5.20;;;;;;;;;;5057518;28;20413;-83
2022/04/20 00:37:52;;;;;;;8.87;5.63;;;;;;;;;;5059170;28;20508;-83
2022/04/20 00:40:18;;;;;;;7.17;5.33;;;;;;;;;;5058770;28;20432;-83
2022/04/20 00:42:44;;;;;;;5.30;4.70;;;;;;;;;;5058812;28;20795;-83
2022/04/20 00:45:10;;;;;;;5.87;4.87;;;;;;;;;;5059003;28;20890;-83
2022/04/20 00:47:37;;;;;;;5.97;5.10;;;;;;;;;;5058820;28;20424;-84
2022/04/20 00:50:04;;;;;;;8.30;5.03;;;;;;;;;;5058653;28;21006;-83
2022/04/20 00:52:30;;;;;;;5.77;4.70;;;;;;;;;;5058968;28;20467;-83
2022/04/20 00:54:56;;;;;;;5.83;5.23;;;;;;;;;;5059201;28;20410;-83
2022/04/20 00:57:22;;;;;;;6.10;4.93;;;;;;;;;;5058814;28;20456;-83
2022/04/20 00:59:48;;;;;;;6.63;5.90;;;;;;;;;;5058535;28;20775;-84
2022/04/20 01:02:15;;;;;;;6.20;5.27;;;;;;;;;;5057653;28;20508;-83
2022/04/20 01:04:41;;;;;;;7.07;6.10;;;;;;;;;;5058669;28;20450;-83
2022/04/20 01:07:14;;;;;;;6.37;5.37;;;;;;;;;;5058527;28;20461;-83
2022/04/20 01:09:41;;;;;;;7.50;5.07;;;;;;;;;;5057954;28;20441;-83
2022/04/20 01:12:08;;;;;;;6.20;5.13;;;;;;;;;;5057212;28;20440;-83
2022/04/20 01:14:34;;;;;;;5.07;4.60;;;;;;;;;;5057962;28;20773;-83
2022/04/20 01:17:01;;;;;;;5.60;4.83;;;;;;;;;;5061973;28;20844;-83
2022/04/20 01:19:38;;;;;;;7.43;5.87;;;;;;;;;;5056849;28;20437;-83
2022/04/20 01:22:05;;;;;;;6.57;5.53;;;;;;;;;;5062931;28;20389;-83
2022/04/20 01:24:31;;;;;;;5.90;5.23;;;;;;;;;;5061595;28;20401;-83
2022/04/20 01:26:57;;;;;;;5.60;5.00;;;;;;;;;;5061862;28;20436;-83
2022/04/20 01:29:25;;;;;;;6.73;5.23;;;;;;;;;;5062539;28;20494;-83
2022/04/20 01:31:52;;;;;;;6.20;5.30;;;;;;;;;;5062314;28;20410;-83
2022/04/20 01:34:18;;;;;;;6.20;5.40;;;;;;;;;;5062438;28;20480;-83
2022/04/20 01:36:44;;;;;;;7.27;5.80;;;;;;;;;;5061070;28;20429;-82
2022/04/20 01:39:10;;;;;;;6.33;5.13;;;;;;;;;;5061234;28;20417;-82
2022/04/20 01:41:36;;;;;;;6.00;5.37;;;;;;;;;;5059218;28;20432;-83
2022/04/20 01:44:02;;;;;;;6.87;5.53;;;;;;;;;;5060574;28;20415;-82
2022/04/20 01:46:29;;;;;;;7.13;5.83;;;;;;;;;;5060870;28;20417;-81
2022/04/20 01:48:55;;;;;;;6.40;5.80;;;;;;;;;;5059259;28;20483;-82
2022/04/20 01:54:05;;;;;;;5.37;4.87;;;;;;;;;;5060603;28;20909;-81
2022/04/20 01:56:31;;;;;;;6.80;6.10;;;;;;;;;;5060219;28;20444;-81
2022/04/20 01:58:57;;;;;;;7.90;6.30;;;;;;;;;;5059588;28;20420;-81
2022/04/20 02:04:08;;;;;;;6.50;4.77;;;;;;;;;;5071093;28;20416;-82
2022/04/20 02:06:34;;;;;;;6.93;5.40;;;;;;;;;;5068095;28;20421;-79
2022/04/20 02:09:00;;;;;;;7.10;5.03;;;;;;;;;;5073665;28;20464;-80
2022/04/20 02:11:26;;;;;;;6.63;5.67;;;;;;;;;;5060840;28;20426;-83
2022/04/20 02:13:52;;;;;;;6.50;5.80;;;;;;;;;;5062093;28;20912;-84
2022/04/20 02:16:18;;;;;;;7.00;5.90;;;;;;;;;;5061712;28;20468;-83
2022/04/20 02:18:44;;;;;;;6.47;5.80;;;;;;;;;;5061648;28;20398;-84
2022/04/20 02:21:10;;;;;;;5.93;5.00;;;;;;;;;;5061569;28;20409;-84
2022/04/20 02:23:36;;;;;;;7.10;6.10;;;;;;;;;;5059537;28;20882;-84
2022/04/20 02:26:02;;;;;;;6.13;5.50;;;;;;;;;;5060248;28;20497;-83
2022/04/20 02:28:29;;;;;;;6.37;5.10;;;;;;;;;;5060289;28;20406;-84
2022/04/20 02:30:55;;;;;;;6.53;5.63;;;;;;;;;;5060539;28;20449;-84
2022/04/20 02:33:21;;;;;;;7.03;5.00;;;;;;;;;;5060713;28;20547;-84
2022/04/20 02:35:47;;;;;;;9.13;7.03;;;;;;;;;;5059931;28;20445;-83
2022/04/20 02:38:14;;;;;;;8.03;6.10;;;;;;;;;;5059532;28;20936;-82
2022/04/20 02:40:41;;;;;;;6.60;5.87;;;;;;;;;;5059791;28;20416;-83
2022/04/20 02:43:08;;;;;;;7.17;6.20;;;;;;;;;;5060611;28;20463;-83
2022/04/20 02:45:34;;;;;;;9.13;7.50;;;;;;;;;;5060041;28;20456;-83
2022/04/20 02:48:03;;;;;;;8.70;6.37;;;;;;;;;;5060190;28;20444;-84
2022/04/20 02:50:30;;;;;;;8.80;7.40;;;;;;;;;;5060608;28;20437;-83
2022/04/20 02:52:56;;;;;;;10.30;6.27;;;;;;;;;;5060086;28;20454;-81
2022/04/20 02:55:22;;;;;;;8.80;7.50;;;;;;;;;;5057560;28;20436;-82
2022/04/20 02:57:49;;;;;;;8.50;6.90;;;;;;;;;;5058239;28;20445;-82
2022/04/20 03:00:15;;;;;;;9.40;7.03;;;;;;;;;;5056071;28;20414;-81
2022/04/20 03:02:41;;;;;;;9.97;7.53;;;;;;;;;;5059757;28;20405;-82
2022/04/20 03:05:07;;;;;;;9.10;7.60;;;;;;;;;;5062353;28;20398;-82
2022/04/20 03:07:34;;;;;;;7.53;6.43;;;;;;;;;;5061005;28;20428;-83
2022/04/20 03:10:00;;;;;;;8.00;6.63;;;;;;;;;;5059935;28;20477;-83
2022/04/20 03:12:26;;;;;;;8.27;7.37;;;;;;;;;;5058280;28;20421;-81
2022/04/20 03:14:54;;;;;;;9.03;7.13;;;;;;;;;;5060188;28;20819;-83
2022/04/20 03:17:21;;;;;;;9.73;7.90;;;;;;;;;;5060406;28;20504;-82
2022/04/20 03:19:47;;;;;;;8.40;6.80;;;;;;;;;;5058467;28;20405;-83
2022/04/20 03:22:13;;;;;;;12.03;7.37;;;;;;;;;;5060398;28;20402;-83
2022/04/20 03:24:39;;;;;;;10.20;7.53;;;;;;;;;;5059646;28;20437;-83
2022/04/20 03:27:06;;;;;;;9.40;7.73;;;;;;;;;;5059809;28;20436;-83
2022/04/20 03:29:32;;;;;;;10.97;8.77;;;;;;;;;;5060473;28;20532;-83
2022/04/20 03:31:58;;;;;;;9.63;8.43;;;;;;;;;;5060420;28;20397;-83
2022/04/20 03:34:24;;;;;;;11.63;8.07;;;;;;;;;;5059809;28;20402;-83
2022/04/20 03:36:50;;;;;;;11.60;8.53;;;;;;;;;;5058216;28;20430;-83
2022/04/20 03:39:16;;;;;;;9.97;8.47;;;;;;;;;;5059910;28;20414;-83
2022/04/20 03:41:42;;;;;;;10.43;8.97;;;;;;;;;;5057655;28;20440;-82
2022/04/20 03:44:08;;;;;;;11.90;8.63;;;;;;;;;;5058787;28;20413;-83
2022/04/20 03:46:35;;;;;;;15.90;9.80;;;;;;;;;;5059886;28;20453;-82
2022/04/20 03:49:01;;;;;;;15.73;10.80;;;;;;;;;;5061157;28;20511;-83
2022/04/20 03:51:27;;;;;;;14.27;9.60;;;;;;;;;;5060716;28;20489;-83
2022/04/20 03:53:53;;;;;;;14.63;10.50;;;;;;;;;;5059314;28;20401;-83
2022/04/20 03:56:19;;;;;;;12.10;10.07;;;;;;;;;;5058809;28;20437;-83
2022/04/20 03:58:45;;;;;;;14.53;10.63;;;;;;;;;;5059369;28;20401;-83
2022/04/20 04:01:11;;;;;;;12.90;10.50;;;;;;;;;;5058284;28;20402;-83
2022/04/20 04:03:37;;;;;;;13.47;11.30;;;;;;;;;;5059001;28;20508;-83
2022/04/20 04:06:03;;;;;;;15.00;12.20;;;;;;;;;;5059244;28;20432;-83
2022/04/20 04:08:29;;;;;;;13.33;10.93;;;;;;;;;;5058295;28;20397;-83
2022/04/20 04:10:56;;;;;;;15.33;11.80;;;;;;;;;;5058083;28;20468;-83
2022/04/20 04:13:22;;;;;;;17.63;12.77;;;;;;;;;;5058546;28;20474;-81
2022/04/20 04:15:49;;;;;;;16.40;13.30;;;;;;;;;;5059495;28;20739;-83
2022/04/20 04:18:16;;;;;;;14.40;12.20;;;;;;;;;;5058725;28;20402;-83
2022/04/20 04:20:43;;;;;;;16.30;13.03;;;;;;;;;;5058871;28;20429;-83
2022/04/20 04:23:09;;;;;;;16.90;13.07;;;;;;;;;;5058445;28;20509;-83
2022/04/20 04:25:38;;;;;;;16.73;12.87;;;;;;;;;;5057534;28;20410;-83
2022/04/20 04:28:05;;;;;;;17.73;13.50;;;;;;;;;;5058314;28;20488;-82
2022/04/20 04:30:32;;;;;;;17.67;14.47;;;;;;;;;;5061477;28;20478;-83
2022/04/20 04:32:58;;;;;;;20.87;15.97;;;;;;;;;;5064123;28;20420;-82
2022/04/20 04:35:24;;;;;;;18.73;14.90;;;;;;;;;;5076992;28;20389;-81
2022/04/20 04:37:50;;;;;;;17.93;14.50;;;;;;;;;;5074489;28;20402;-81
2022/04/20 04:40:18;;;;;;;19.33;14.57;;;;;;;;;;5073001;28;20451;-80
2022/04/20 04:42:44;;;;;;;18.83;14.43;;;;;;;;;;5074265;28;20401;-81
2022/04/20 04:50:40;;;;;;;19.43;14.87;;;;;;;;;;5058558;28;20463;-83
2022/04/20 04:53:06;;;;;;;18.93;14.33;;;;;;;;;;5058771;28;20482;-83
2022/04/20 04:55:32;;;;;;;19.90;15.23;;;;;;;;;;5062423;28;20437;-83
2022/04/20 04:57:58;;;;;;;17.10;13.10;;;;;;;;;;5107986;22;20493;-81
2022/04/20 05:00:24;;;;;;;19.43;14.57;;;;;;;;;;5060660;28;20456;-79
2022/04/20 05:02:50;;;;;;;20.20;15.57;;;;;;;;;;5079797;28;20393;-80
2022/04/20 05:05:16;;;;;;;20.47;14.33;;;;;;;;;;5079672;28;20426;-80
2022/04/20 05:07:43;;;;;;;18.87;14.20;;;;;;;;;;5079757;28;20405;-80
2022/04/20 05:10:09;;;;;;;21.20;14.63;;;;;;;;;;5079988;28;20453;-80
2022/04/20 05:12:35;;;;;;;19.20;14.07;;;;;;;;;;5079611;28;20402;-81
2022/04/20 05:15:01;;;;;;;18.13;14.03;;;;;;;;;;5079652;28;20419;-80
2022/04/20 05:17:27;;;;;;;23.23;14.10;;;;;;;;;;5061859;28;20430;-80
2022/04/20 05:19:53;;;;;;;18.57;14.37;;;;;;;;;;5079023;28;20519;-80
2022/04/20 05:22:19;;;;;;;18.10;13.90;;;;;;;;;;5078979;28;20405;-80
2022/04/20 05:24:45;;;;;;;20.20;13.97;;;;;;;;;;5075387;28;20753;-80
2022/04/20 05:27:13;;;;;;;16.77;14.17;;;;;;;;;;5072630;28;20467;-80
2022/04/20 05:29:39;;;;;;;18.73;15.50;;;;;;;;;;5055177;28;20452;-80
2022/04/20 05:32:05;;;;;;;22.30;14.60;;;;;;;;;;5072250;28;20473;-80
2022/04/20 05:34:33;;;;;;;19.53;13.43;;;;;;;;;;5074652;28;20409;-80
2022/04/20 05:42:29;;;;;;;17.50;13.37;;;;;;;;;;5071152;28;20416;-81
2022/04/20 05:44:55;;;;;;;14.57;11.97;;;;;;;;;;5054288;28;20420;-81
2022/04/20 05:47:21;;;;;;;17.77;12.93;;;;;;;;;;5072023;28;20517;-81
2022/04/20 05:49:47;;;;;;;18.17;12.47;;;;;;;;;;5071742;28;20502;-81
2022/04/20 05:52:13;;;;;;;17.97;13.77;;;;;;;;;;5071322;28;20421;-81
2022/04/20 05:54:39;;;;;;;17.37;13.03;;;;;;;;;;5072132;28;20441;-81
2022/04/20 05:57:05;;;;;;;14.53;11.97;;;;;;;;;;5071722;28;20491;-81
2022/04/20 05:59:31;;;;;;;17.47;13.63;;;;;;;;;;5071973;28;20485;-81
2022/04/20 06:01:57;;;;;;;18.30;13.10;;;;;;;;;;5071569;28;20845;-81
2022/04/20 06:04:25;;;;;;;15.97;11.73;;;;;;;;;;5071279;28;20478;-81
2022/04/20 06:06:51;;;;;;;15.30;12.20;;;;;;;;;;5070541;28;20436;-81
2022/04/20 06:09:17;;;;;;;17.47;11.53;;;;;;;;;;5071288;28;20459;-81
2022/04/20 06:11:43;;;;;;;14.87;11.87;;;;;;;;;;5072825;28;20441;-81
2022/04/20 06:14:09;;;;;;;17.10;12.40;;;;;;;;;;5071258;28;20398;-81
2022/04/20 06:16:35;;;;;;;15.60;12.47;;;;;;;;;;5070862;28;20425;-81
2022/04/20 06:19:01;;;;;;;15.20;12.13;;;;;;;;;;5069362;28;20402;-81
2022/04/20 06:21:27;;;;;;;16.63;12.33;;;;;;;;;;5068515;28;20484;-80
2022/04/20 06:23:53;;;;;;;13.80;11.20;;;;;;;;;;5069604;28;20401;-81
2022/04/20 06:26:20;;;;;;;21.10;12.77;;;;;;;;;;5073062;28;20405;-81
2022/04/20 06:28:46;;;;;;;15.23;12.77;;;;;;;;;;5070634;28;20397;-81
2022/04/20 06:31:12;;;;;;;14.80;12.57;;;;;;;;;;5070849;28;20406;-81
2022/04/20 06:33:38;;;;;;;15.23;11.40;;;;;;;;;;5071184;28;20402;-80
2022/04/20 06:36:04;;;;;;;22.93;13.07;;;;;;;;;;5072288;28;20563;-80
2022/04/20 06:38:30;;;;;;;17.90;12.57;;;;;;;;;;5054098;28;20429;-81
2022/04/20 06:40:58;;;;;;;16.77;11.77;;;;;;;;;;5054328;28;20445;-81
2022/04/20 06:43:24;;;;;;;13.90;10.90;;;;;;;;;;5071765;28;20435;-80
2022/04/20 06:45:50;;;;;;;13.53;11.53;;;;;;;;;;5072414;28;20417;-81
2022/04/20 06:48:16;;;;;;;16.70;11.60;;;;;;;;;;5072486;28;20433;-81
2022/04/20 06:50:43;;;;;;;13.70;10.40;;;;;;;;;;5072852;28;20525;-80
2022/04/20 06:58:39;;;;;;;13.23;9.70;;;;;;;;;;5071812;28;20392;-81
2022/04/20 07:01:07;;;;;;;11.00;9.90;;;;;;;;;;5071812;28;20425;-80
2022/04/20 07:03:34;;;;;;;17.77;9.23;;;;;;;;;;5071614;28;20409;-81
2022/04/20 07:06:00;;;;;;;11.67;10.20;;;;;;;;;;5071967;28;20418;-81
2022/04/20 07:08:27;;;;;;;11.33;9.70;;;;;;;;;;5071517;28;20437;-81
2022/04/20 07:10:53;;;;;;;12.93;9.60;;;;;;;;;;5070985;28;20472;-81
2022/04/20 07:13:19;;;;;;;14.73;10.00;;;;;;;;;;5070953;28;20467;-81
2022/04/20 07:15:46;;;;;;;13.23;10.30;;;;;;;;;;5070541;28;20409;-81
2022/04/20 07:18:12;;;;;;;12.67;8.47;;;;;;;;;;5069592;28;20421;-81
2022/04/20 07:20:39;;;;;;;12.47;9.30;;;;;;;;;;5071001;28;20405;-81
2022/04/20 07:23:05;;;;;;;10.60;8.63;;;;;;;;;;5070578;28;20405;-81
2022/04/20 07:25:34;;;;;;;10.87;8.70;;;;;;;;;;5070208;28;20409;-81
2022/04/20 07:28:00;;;;;;;12.50;8.97;;;;;;;;;;5070205;28;20441;-81
2022/04/20 07:30:26;;;;;;;10.60;8.80;;;;;;;;;;5069171;28;20457;-80
2022/04/20 07:32:52;;;;;;;14.30;9.10;;;;;;;;;;5061535;28;20433;-80
2022/04/20 07:35:18;;;;;;;10.33;8.70;;;;;;;;;;5063971;28;20431;-82
2022/04/20 07:37:45;;;;;;;11.17;8.50;;;;;;;;;;5066695;28;20449;-81
2022/04/20 07:40:12;;;;;;;10.10;7.80;;;;;;;;;;5066221;28;20488;-81
2022/04/20 07:42:38;;;;;;;11.90;9.50;;;;;;;;;;5064817;28;20444;-81
2022/04/20 07:45:05;;;;;;;10.27;8.37;;;;;;;;;;5064016;28;20425;-81
2022/04/20 07:47:31;;;;;;;10.77;9.07;;;;;;;;;;5069623;28;20524;-80
2022/04/20 07:52:43;;;;;;;11.53;8.67;;;;;;;;;;5068398;28;20401;-82
2022/04/20 07:55:13;;;;;;;10.47;8.43;;;;;;;;;;5069032;28;20427;-82
2022/04/20 07:57:42;;;;;;;9.27;8.27;;;;;;;;;;5069123;28;20444;-82
2022/04/20 08:00:09;;;;;;;12.70;8.30;;;;;;;;;;5068310;28;20410;-82
2022/04/20 08:02:35;;;;;;;11.03;9.07;;;;;;;;;;5069590;28;20563;-82
2022/04/20 08:05:01;;;;;;;12.57;10.10;;;;;;;;;;5069312;28;20401;-82
2022/04/20 08:07:27;;;;;;;12.50;9.07;;;;;;;;;;5068817;28;20423;-82
2022/04/20 08:09:53;;;;;;;12.73;9.07;;;;;;;;;;5068515;28;20441;-82
2022/04/20 08:12:19;;;;;;;9.87;8.40;;;;;;;;;;5069761;28;20417;-81
2022/04/20 08:14:46;;;;;;;10.50;7.97;;;;;;;;;;5069357;28;20426;-82
2022/04/20 08:17:12;;;;;;;12.30;9.50;;;;;;;;;;5069159;28;20477;-82
2022/04/20 08:19:38;;;;;;;11.93;9.60;;;;;;;;;;5068728;28;20885;-82
2022/04/20 08:22:04;;;;;;;16.23;8.70;;;;;;;;;;5069180;28;20779;-82
2022/04/20 08:24:30;;;;;;;14.60;6.97;;;;;;;;;;5070041;28;20432;-82
2022/04/20 08:26:56;;;;;;;7.30;6.27;;;;;;;;;;5069359;28;20421;-82
2022/04/20 08:29:23;;;;;;;10.50;7.40;;;;;;;;;;5066161;28;20909;-82
2022/04/20 08:31:49;;;;;;;8.33;6.63;;;;;;;;;;5068231;28;20408;-82
2022/04/20 08:34:15;;;;;;;12.50;6.03;;;;;;;;;;5069251;28;20408;-82
2022/04/20 08:36:41;;;;;;;8.70;5.80;;;;;;;;;;5050975;28;20429;-82
2022/04/20 08:39:07;;;;;;;7.97;6.87;;;;;;;;;;5068698;28;20411;-82
2022/04/20 08:41:34;;;;;;;6.83;5.67;;;;;;;;;;5068916;28;20434;-82
2022/04/20 08:44:01;;;;;;;8.07;5.70;;;;;;;;;;5068850;28;20454;-82
2022/04/20 08:46:27;;;;;;;7.77;5.93;;;;;;;;;;5068804;28;20497;-82
2022/04/20 08:48:53;;;;;;;11.53;6.33;;;;;;;;;;5068004;28;20410;-82
2022/04/20 08:51:20;;;;;;;9.67;6.17;;;;;;;;;;5068987;28;20409;-82
2022/04/20 08:53:46;;;;;;;8.00;5.70;;;;;;;;;;5051041;28;20531;-82
2022/04/20 08:58:57;;;;;;;7.67;5.93;;;;;;;;;;5068569;28;20385;-82
2022/04/20 09:01:27;;;;;;;9.37;6.80;;;;;;;;;;5068503;28;20420;-82
2022/04/20 09:03:54;;;;;;;8.00;5.50;;;;;;;;;;5068946;28;20366;-82
2022/04/20 09:06:20;;;;;;;10.77;5.73;;;;;;;;;;5069012;28;20394;-82
2022/04/20 09:08:46;;;;;;;7.77;5.83;;;;;;;;;;5050790;28;20409;-82
2022/04/20 09:11:12;;;;;;;6.17;5.40;;;;;;;;;;5068926;28;20473;-82
2022/04/20 09:13:41;;;;;;;8.47;5.93;;;;;;;;;;5065403;28;20413;-82
2022/04/20 09:16:11;;;;;;;6.87;5.40;;;;;;;;;;5046757;28;20440;-81
2022/04/20 09:18:37;;;;;;;5.93;4.90;;;;;;;;;;5049675;28;20413;-82
2022/04/20 09:21:11;;;;;;;5.80;4.53;;;;;;;;;;5048133;28;20414;-82
2022/04/20 09:23:37;;;;;;;7.70;5.23;;;;;;;;;;5053577;28;20417;-82
2022/04/20 09:26:16;;;;;;;9.10;5.93;;;;;;;;;;5042906;28;20423;-82
2022/04/20 09:29:02;;;;;;;8.07;4.87;;;;;;;;;;5028148;28;20400;-82
2022/04/20 09:31:41;;;;;;;8.50;5.30;;;;;;;;;;5027958;28;20403;-80
2022/04/20 09:34:08;;;;;;;5.73;3.87;;;;;;;;;;5026585;28;20423;-80
2022/04/20 09:36:48;;;;;;;7.47;5.50;;;;;;;;;;5027699;28;20775;-82
2022/04/20 09:39:14;;;;;;;6.67;5.00;;;;;;;;;;5028460;28;20379;-81
2022/04/20 09:41:59;;;;;;;7.53;5.37;;;;;;;;;;5028681;28;20403;-81
2022/04/20 09:44:26;;;;;;;6.70;4.70;;;;;;;;;;5031058;28;20399;-81
2022/04/20 09:49:54;;;;;;;6.30;4.60;;;;;;;;;;5029843;28;20530;-81
2022/04/20 09:52:21;;;;;;;6.10;4.57;;;;;;;;;;5028649;28;20407;-81
2022/04/20 09:54:53;;;;;;;7.60;5.17;;;;;;;;;;5028188;28;20404;-80
2022/04/20 09:57:21;;;;;;;12.53;4.77;;;;;;;;;;5029531;28;20468;-80
2022/04/20 09:59:58;;;;;;;6.53;4.30;;;;;;;;;;5031227;28;20434;-80
2022/04/20 10:02:25;;;;;;;10.10;4.40;;;;;;;;;;5010235;28;20427;-79
2022/04/20 10:04:52;;;;;;;5.90;4.87;;;;;;;;;;5029688;28;20668;-79
2022/04/20 10:07:18;;;;;;;6.30;3.90;;;;;;;;;;5029367;28;20806;-80
2022/04/20 10:09:45;;;;;;;5.27;4.20;;;;;;;;;;5030416;28;20458;-81
2022/04/20 10:12:18;;;;;;;4.97;4.20;;;;;;;;;;5032268;28;20482;-80
2022/04/20 10:17:34;;;;;;;5.83;4.43;;;;;;;;;;5050309;28;20553;-81
2022/04/20 10:20:04;;;;;;;7.73;4.60;;;;;;;;;;5050707;28;20413;-80
2022/04/20 10:22:31;;;;;;;8.67;4.27;;;;;;;;;;5048038;28;20433;-81
2022/04/20 10:24:57;;;;;;;6.93;4.10;;;;;;;;;;5048533;28;20425;-81
2022/04/20 10:27:34;;;;;;;8.50;5.30;;;;;;;;;;5048344;28;20418;-81
2022/04/20 10:30:02;;;;;;;5.43;3.97;;;;;;;;;;5050140;28;20441;-81
2022/04/20 10:32:38;;;;;;;6.87;4.70;;;;;;;;;;5047824;28;20910;-81
2022/04/20 10:35:05;;;;;;;8.57;7.50;;;;;;;;;;5048164;28;20379;-81
2022/04/20 10:37:31;;;;;;;5.70;5.07;;;;;;;;;;5049837;28;20426;-81
2022/04/20 10:40:17;;;;;;;5.80;5.20;;;;;;;;;;5049279;28;20426;-81
2022/04/20 10:42:44;;;;;;;7.30;5.63;;;;;;;;;;5046956;28;20391;-81
2022/04/20 10:45:12;;;;;;;5.93;4.83;;;;;;;;;;5046881;28;20489;-80
2022/04/20 10:47:45;;;;;;;6.23;5.20;;;;;;;;;;5050196;28;20425;-81
2022/04/20 10:50:20;;;;;;;6.73;5.80;;;;;;;;;;5049855;28;20438;-81
2022/04/20 10:52:48;;;;;;;6.40;5.33;;;;;;;;;;5047159;28;20409;-81
2022/04/20 10:55:15;;;;;;;7.60;5.10;;;;;;;;;;5029087;28;20418;-81
2022/04/20 10:57:42;;;;;;;6.10;4.77;;;;;;;;;;5047217;28;20718;-81
2022/04/20 11:00:20;;;;;;;6.70;5.17;;;;;;;;;;5045388;28;20418;-81
2022/04/20 11:02:49;;;;;;;6.30;5.13;;;;;;;;;;5046349;28;20418;-81
2022/04/20 11:05:15;;;;;;;7.90;5.13;;;;;;;;;;5043503;28;20407;-80
2022/04/20 11:08:07;;;;;;;6.30;5.10;;;;;;;;;;5041173;28;20789;-81
2022/04/20 11:10:34;;;;;;;6.70;5.00;;;;;;;;;;5038831;28;20622;-81
2022/04/20 11:19:07;;;;;;;8.30;6.03;;;;;;;;;;5040991;28;20445;-81
2022/04/20 11:21:33;;;;;;;6.27;5.17;;;;;;;;;;5041490;28;20402;-81
2022/04/20 11:24:06;;;;;;;16.83;5.57;;;;;;;;;;5040849;28;20825;-81
2022/04/20 11:26:34;;;;;;;9.03;5.00;;;;;;;;;;5041831;28;20448;-82
2022/04/20 11:29:16;;;;;;;10.30;4.57;;;;;;;;;;5040531;28;20402;-81
2022/04/20 11:31:46;;;;;;;7.70;5.50;;;;;;;;;;5039635;28;20411;-81
2022/04/20 11:34:14;;;;;;;8.33;6.57;;;;;;;;;;5041662;28;20403;-82
2022/04/20 11:36:42;;;;;;;10.10;6.17;;;;;;;;;;5046173;28;20414;-82
2022/04/20 11:39:12;;;;;;;7.33;5.20;;;;;;;;;;5043667;28;20415;-81
2022/04/20 11:41:38;;;;;;;7.90;5.43;;;;;;;;;;5041835;28;20411;-80
2022/04/20 11:44:19;;;;;;;7.50;5.27;;;;;;;;;;5042473;28;20430;-80
2022/04/20 11:46:45;;;;;;;6.17;5.07;;;;;;;;;;5039181;28;20433;-81
2022/04/20 11:49:12;;;;;;;6.90;5.00;;;;;;;;;;5040849;28;20418;-82
2022/04/20 11:51:38;;;;;;;7.20;5.57;;;;;;;;;;5040711;28;20457;-81
2022/04/20 11:54:05;;;;;;;7.97;5.20;;;;;;;;;;5038855;28;20405;-81
2022/04/20 11:56:34;;;;;;;6.73;5.40;;;;;;;;;;5039837;28;20456;-81
2022/04/20 11:59:00;;;;;;;5.67;5.07;;;;;;;;;;5040777;28;20890;-82
2022/04/20 12:01:26;;;;;;;6.83;4.83;;;;;;;;;;5040127;28;20406;-82
2022/04/20 12:03:54;;;;;;;7.13;5.67;;;;;;;;;;5039142;28;20768;-81
2022/04/20 12:06:23;;;;;;;8.00;5.80;;;;;;;;;;5040535;28;20403;-81
2022/04/20 12:08:52;;;;;;;6.87;5.00;;;;;;;;;;5044223;28;20433;-80
2022/04/20 12:11:22;;;;;;;6.80;5.53;;;;;;;;;;5047384;28;20405;-81
2022/04/20 12:13:54;;;;;;;6.53;4.70;;;;;;;;;;5038540;28;20483;-81
2022/04/20 12:16:23;;;;;;;5.70;4.63;;;;;;;;;;5005060;28;20431;-81
2022/04/20 12:18:49;;;;;;;7.17;4.60;;;;;;;;;;5021202;28;20450;-82
2022/04/20 12:21:34;;;;;;;5.50;4.90;;;;;;;;;;5003513;28;20803;-82
2022/04/20 12:24:01;;;;;;;6.23;4.83;;;;;;;;;;5020488;28;20431;-82
2022/04/20 12:26:28;;;;;;;5.67;4.60;;;;;;;;;;5020842;28;20427;-81
2022/04/20 12:29:01;;;;;;;5.30;4.80;;;;;;;;;;5020560;28;20410;-82
2022/04/20 12:31:27;;;;;;;8.90;5.77;;;;;;;;;;5020366;28;20403;-82
2022/04/20 12:34:00;;;;;;;7.57;5.53;;;;;;;;;;5018770;28;20431;-81
2022/04/20 12:36:27;;;;;;;8.47;5.03;;;;;;;;;;5021221;28;20399;-82
2022/04/20 12:38:53;;;;;;;6.00;4.43;;;;;;;;;;5020329;28;20430;-81
2022/04/20 12:41:37;;;;;;;11.13;5.60;;;;;;;;;;5023696;28;20407;-82
2022/04/20 12:44:23;;;;;;;8.70;6.27;;;;;;;;;;5018898;28;20434;-82
2022/04/20 12:46:49;;;;;;;5.60;4.90;;;;;;;;;;4989138;28;20427;-82
2022/04/20 12:49:23;;;;;;;6.20;5.60;;;;;;;;;;5020192;28;20458;-82
2022/04/20 12:51:49;;;;;;;6.83;5.23;;;;;;;;;;4986137;28;20510;-81
2022/04/20 12:54:27;;;;;;;7.10;5.17;;;;;;;;;;5019543;28;20443;-82
2022/04/20 13:02:22;;;;;;;10.23;4.70;;;;;;;;;;5019886;28;20395;-81
2022/04/20 13:04:49;;;;;;;6.30;4.90;;;;;;;;;;5020168;28;20424;-81
2022/04/20 13:07:15;;;;;;;5.80;4.70;;;;;;;;;;5020735;28;20435;-82
2022/04/20 13:09:41;;;;;;;6.97;4.60;;;;;;;;;;5023344;28;20823;-82
2022/04/20 13:12:07;;;;;;;4.80;4.30;;;;;;;;;;5021283;28;20399;-82
2022/04/20 13:14:34;;;;;;;6.30;4.10;;;;;;;;;;5020427;28;20422;-81
2022/04/20 13:17:00;;;;;;;5.13;4.10;;;;;;;;;;5022953;28;20430;-82
2022/04/20 13:19:26;;;;;;;5.53;4.67;;;;;;;;;;5023445;28;20407;-80
2022/04/20 13:21:52;;;;;;;8.20;5.40;;;;;;;;;;5023757;28;20403;-81
2022/04/20 13:27:53;;;;;;;6.50;5.40;;;;;;;;;;5023111;28;20403;-81
2022/04/20 13:29:49;;;;;;;7.43;6.60;;;;;;;;;;5026677;28;20477;-82
2022/04/20 13:32:15;;;;;;;6.63;5.40;;;;;;;;;;5026538;28;20403;-81
2022/04/20 13:34:41;;;;;;;12.97;5.30;;;;;;;;;;5023992;28;20407;-81
2022/04/20 13:37:07;;;;;;;6.57;5.83;;;;;;;;;;5005982;28;20773;-81
2022/04/20 13:39:33;;;;;;;8.20;5.43;;;;;;;;;;5024207;28;20415;-82
2022/04/20 13:41:59;;;;;;;7.57;6.43;;;;;;;;;;5023339;28;20411;-81
2022/04/20 13:44:25;;;;;;;6.57;5.87;;;;;;;;;;5022207;28;20407;-81
2022/04/20 13:46:51;;;;;;;10.53;6.23;;;;;;;;;;5023499;28;20518;-81
2022/04/20 13:49:17;;;;;;;7.47;6.20;;;;;;;;;;5024127;28;20595;-82
2022/04/20 13:51:43;;;;;;;8.23;6.00;;;;;;;;;;5024866;28;20407;-82
2022/04/20 13:54:10;;;;;;;6.50;5.77;;;;;;;;;;5022889;28;20399;-81
2022/04/20 13:56:36;;;;;;;6.97;5.80;;;;;;;;;;5040058;28;20458;-82
2022/04/20 13:59:02;;;;;;;8.73;5.60;;;;;;;;;;5043994;28;20391;-81
2022/04/20 14:01:28;;;;;;;7.37;4.90;;;;;;;;;;5025096;28;20407;-81
2022/04/20 14:03:54;;;;;;;7.60;5.80;;;;;;;;;;5042598;28;20406;-81
2022/04/20 14:06:21;;;;;;;7.07;5.70;;;;;;;;;;5025766;28;20407;-81
2022/04/20 14:08:47;;;;;;;5.70;5.03;;;;;;;;;;5042786;28;20407;-81
2022/04/20 14:11:13;;;;;;;7.57;5.23;;;;;;;;;;5042505;28;20449;-82
2022/04/20 14:13:39;;;;;;;5.43;4.90;;;;;;;;;;5041051;28;20417;-81
2022/04/20 14:16:06;;;;;;;7.37;6.50;;;;;;;;;;5041925;28;20406;-81
2022/04/20 14:18:33;;;;;;;6.70;5.30;;;;;;;;;;5042952;28;20469;-81
2022/04/20 14:20:59;;;;;;;5.70;5.13;;;;;;;;;;5040871;28;20414;-81
2022/04/20 14:23:25;;;;;;;6.60;4.53;;;;;;;;;;5040374;28;20402;-81
2022/04/20 14:34:08;;;;;;;5.73;5.23;;;;;;;;;;5042204;28;20916;-82
2022/04/20 14:36:35;;;;;;;6.03;5.00;;;;;;;;;;5044662;28;20460;-82
2022/04/20 14:39:02;;;;;;;8.33;5.90;;;;;;;;;;5045179;28;20799;-82
2022/04/20 14:41:28;;;;;;;7.67;5.10;;;;;;;;;;5042407;28;20395;-82
2022/04/20 14:43:55;;;;;;;6.83;5.17;;;;;;;;;;5041088;28;20485;-82
2022/04/20 14:46:21;;;;;;;7.40;5.37;;;;;;;;;;5040757;28;20390;-81
2022/04/20 14:48:47;;;;;;;6.77;5.27;;;;;;;;;;5040160;28;20861;-81
2022/04/20 14:51:14;;;;;;;5.97;5.07;;;;;;;;;;5040062;28;20969;-81
2022/04/20 14:53:40;;;;;;;6.37;5.20;;;;;;;;;;5041322;28;20403;-81
2022/04/20 14:56:06;;;;;;;5.40;4.90;;;;;;;;;;5044334;28;20457;-82
2022/04/20 14:58:33;;;;;;;5.87;5.10;;;;;;;;;;5040757;28;20839;-82
2022/04/20 15:00:59;;;;;;;5.63;5.13;;;;;;;;;;5041140;28;20917;-82
2022/04/20 15:03:25;;;;;;;5.77;4.90;;;;;;;;;;5040538;28;20414;-81
2022/04/20 15:05:51;;;;;;;5.67;5.07;;;;;;;;;;5041583;28;20410;-81
2022/04/20 15:08:17;;;;;;;6.53;4.83;;;;;;;;;;5042771;28;20433;-82
2022/04/20 15:10:43;;;;;;;5.90;5.30;;;;;;;;;;5042607;28;20461;-82
2022/04/20 15:13:09;;;;;;;6.57;5.97;;;;;;;;;;5041918;28;20426;-82
2022/04/20 15:15:35;;;;;;;8.17;5.70;;;;;;;;;;5040776;28;20478;-82
2022/04/20 15:18:01;;;;;;;5.67;4.70;;;;;;;;;;5042223;28;20422;-82
2022/04/20 15:20:27;;;;;;;5.30;4.80;;;;;;;;;;5042519;28;20402;-82
2022/04/20 15:22:55;;;;;;;10.20;5.17;;;;;;;;;;5041776;28;20442;-82
2022/04/20 15:25:21;;;;;;;6.13;5.53;;;;;;;;;;5042182;28;20546;-81
2022/04/20 15:27:47;;;;;;;7.00;5.93;;;;;;;;;;5042942;28;20510;-82
2022/04/20 15:30:13;;;;;;;6.17;5.03;;;;;;;;;;5042872;28;20989;-82
2022/04/20 15:32:40;;;;;;;6.07;5.03;;;;;;;;;;5042230;28;20771;-82